Time;durP1;ratioP1;P1;durP2;ratioP2;P2;SDS_P1;SDS_P2;PMS_P1;PMS_P2;Temp;Humidity;BMP_temperature;BMP_pressure;BME280_temperature;BME280_humidity;BME280_pressure;Samples;Min_cycle;Max_cycle;Signal;HPM_P1;HPM_P2
2023/07/30 00:00:26;;;;;;;10.60;3.47;;;;;;;;;;5048030;28;20033;-72
2023/07/30 00:02:51;;;;;;;6.23;3.13;;;;;;;;;;5050597;28;20283;-72
2023/07/30 00:05:17;;;;;;;8.63;3.70;;;;;;;;;;5049734;28;20269;-72
2023/07/30 00:07:42;;;;;;;7.75;3.10;;;;;;;;;;5048279;28;20299;-72
2023/07/30 00:10:07;;;;;;;8.50;3.17;;;;;;;;;;5046288;28;20119;-72
2023/07/30 00:12:32;;;;;;;11.18;4.78;;;;;;;;;;5049527;28;20024;-72
2023/07/30 00:14:58;;;;;;;10.63;3.70;;;;;;;;;;5050313;28;20013;-72
2023/07/30 00:17:23;;;;;;;5.47;3.30;;;;;;;;;;5049633;28;20831;-72
2023/07/30 00:19:48;;;;;;;9.97;3.07;;;;;;;;;;5050381;28;20268;-72
2023/07/30 00:22:13;;;;;;;7.60;3.80;;;;;;;;;;5047085;28;20279;-72
2023/07/30 00:24:38;;;;;;;8.17;3.80;;;;;;;;;;5049257;28;20614;-72
2023/07/30 00:27:04;;;;;;;9.43;3.87;;;;;;;;;;5049756;28;20028;-72
2023/07/30 00:29:29;;;;;;;5.28;3.08;;;;;;;;;;5048888;28;20481;-72
2023/07/30 00:31:54;;;;;;;6.83;3.87;;;;;;;;;;5049552;28;20109;-72
2023/07/30 00:34:19;;;;;;;9.47;3.37;;;;;;;;;;5048868;28;20675;-72
2023/07/30 00:36:44;;;;;;;8.27;3.67;;;;;;;;;;5048882;28;20283;-72
2023/07/30 00:39:11;;;;;;;6.40;3.53;;;;;;;;;;5049826;28;20332;-72
2023/07/30 00:41:36;;;;;;;8.50;3.60;;;;;;;;;;5049171;28;20251;-72
2023/07/30 00:44:01;;;;;;;5.97;3.17;;;;;;;;;;5049044;28;20024;-72
2023/07/30 00:46:26;;;;;;;14.10;3.60;;;;;;;;;;5049041;28;20287;-72
2023/07/30 00:48:52;;;;;;;7.35;3.42;;;;;;;;;;5049056;28;20640;-72
2023/07/30 00:51:17;;;;;;;8.95;4.15;;;;;;;;;;5048442;28;20045;-72
2023/07/30 00:53:42;;;;;;;10.55;3.63;;;;;;;;;;5050285;28;20052;-72
2023/07/30 00:56:07;;;;;;;7.90;3.70;;;;;;;;;;5047728;28;20452;-72
2023/07/30 00:58:33;;;;;;;10.90;3.97;;;;;;;;;;5048121;28;21037;-72
2023/07/30 01:00:58;;;;;;;7.28;3.10;;;;;;;;;;5048242;28;20282;-72
2023/07/30 01:03:23;;;;;;;5.67;3.10;;;;;;;;;;5045632;28;20059;-72
2023/07/30 01:05:48;;;;;;;7.50;3.23;;;;;;;;;;5048743;28;20279;-72
2023/07/30 01:08:13;;;;;;;6.10;3.58;;;;;;;;;;5048206;28;20283;-72
2023/07/30 01:10:40;;;;;;;7.43;3.53;;;;;;;;;;5048973;28;20652;-72
2023/07/30 01:13:07;;;;;;;8.45;3.53;;;;;;;;;;5049718;28;20258;-72
2023/07/30 01:15:32;;;;;;;4.78;3.22;;;;;;;;;;5048499;28;20028;-72
2023/07/30 01:17:57;;;;;;;8.38;3.58;;;;;;;;;;5046882;28;20033;-72
2023/07/30 01:20:22;;;;;;;12.57;3.60;;;;;;;;;;5052291;28;20020;-72
2023/07/30 01:22:48;;;;;;;9.17;3.50;;;;;;;;;;5053893;28;20256;-72
2023/07/30 01:25:14;;;;;;;8.15;3.33;;;;;;;;;;5053227;28;20135;-72
2023/07/30 01:27:42;;;;;;;6.15;3.03;;;;;;;;;;5051146;28;20108;-72
2023/07/30 01:30:22;;;;;;;12.45;3.80;;;;;;;;;;5052157;28;20035;-72
2023/07/30 01:32:49;;;;;;;6.57;3.67;;;;;;;;;;5045053;28;20087;-72
2023/07/30 01:35:15;;;;;;;11.18;3.65;;;;;;;;;;5053524;28;20301;-72
2023/07/30 01:37:41;;;;;;;7.93;3.55;;;;;;;;;;5052804;28;20421;-72
2023/07/30 01:40:07;;;;;;;5.75;3.33;;;;;;;;;;5052958;28;20520;-72
2023/07/30 01:42:32;;;;;;;12.77;3.42;;;;;;;;;;5049461;28;20434;-72
2023/07/30 01:44:57;;;;;;;17.03;4.87;;;;;;;;;;5046261;28;20056;-72
2023/07/30 01:47:22;;;;;;;9.77;3.85;;;;;;;;;;5052116;28;20078;-72
2023/07/30 01:49:48;;;;;;;5.43;3.27;;;;;;;;;;5052218;28;20012;-69
2023/07/30 01:52:13;;;;;;;6.87;3.47;;;;;;;;;;5052701;28;20748;-69
2023/07/30 01:54:38;;;;;;;9.17;3.60;;;;;;;;;;5049254;28;20017;-70
2023/07/30 01:57:03;;;;;;;7.87;3.57;;;;;;;;;;5050460;28;20345;-69
2023/07/30 01:59:29;;;;;;;7.70;3.47;;;;;;;;;;5052079;28;20654;-69
2023/07/30 02:01:54;;;;;;;8.23;3.57;;;;;;;;;;5052484;28;20082;-69
2023/07/30 02:04:19;;;;;;;7.50;3.37;;;;;;;;;;5052157;28;20793;-69
2023/07/30 02:06:44;;;;;;;7.00;3.22;;;;;;;;;;5050432;28;20275;-72
2023/07/30 02:09:09;;;;;;;9.27;3.63;;;;;;;;;;5051484;28;20033;-72
2023/07/30 02:11:34;;;;;;;9.43;3.17;;;;;;;;;;5051260;28;20271;-72
2023/07/30 02:14:00;;;;;;;6.03;3.17;;;;;;;;;;5052187;28;20700;-72
2023/07/30 02:16:25;;;;;;;7.83;3.40;;;;;;;;;;5049587;28;20429;-72
2023/07/30 02:18:50;;;;;;;9.73;3.00;;;;;;;;;;5052268;28;20021;-72
2023/07/30 02:21:15;;;;;;;8.60;3.30;;;;;;;;;;5051082;28;20341;-72
2023/07/30 02:23:40;;;;;;;6.33;2.77;;;;;;;;;;5051267;28;20342;-72
2023/07/30 02:26:05;;;;;;;9.77;2.90;;;;;;;;;;5050801;28;20547;-72
2023/07/30 02:28:31;;;;;;;6.57;3.00;;;;;;;;;;5050751;28;20292;-72
2023/07/30 02:30:56;;;;;;;8.53;2.57;;;;;;;;;;5051890;28;20414;-72
2023/07/30 02:33:21;;;;;;;7.23;3.30;;;;;;;;;;5050925;28;20021;-72
2023/07/30 02:35:46;;;;;;;10.77;3.13;;;;;;;;;;5049436;28;20389;-72
2023/07/30 02:38:11;;;;;;;7.88;2.92;;;;;;;;;;5051428;28;20474;-72
2023/07/30 02:40:36;;;;;;;12.83;3.00;;;;;;;;;;5050645;28;20454;-72
2023/07/30 02:43:02;;;;;;;9.23;3.47;;;;;;;;;;5045884;28;20014;-72
2023/07/30 02:45:27;;;;;;;5.73;2.70;;;;;;;;;;5050016;28;20282;-72
2023/07/30 02:47:52;;;;;;;10.50;2.97;;;;;;;;;;5051321;28;20090;-72
2023/07/30 02:50:17;;;;;;;7.85;2.80;;;;;;;;;;5051796;28;20263;-72
2023/07/30 02:52:42;;;;;;;7.28;2.65;;;;;;;;;;5050073;28;20021;-72
2023/07/30 02:55:08;;;;;;;3.97;2.07;;;;;;;;;;5048290;28;20021;-72
2023/07/30 02:57:33;;;;;;;12.25;3.20;;;;;;;;;;5047213;28;20275;-72
2023/07/30 02:59:58;;;;;;;8.10;3.15;;;;;;;;;;5051406;28;20462;-72
2023/07/30 03:02:23;;;;;;;11.00;3.37;;;;;;;;;;5050677;28;20508;-72
2023/07/30 03:04:48;;;;;;;8.50;2.93;;;;;;;;;;5049745;28;20299;-72
2023/07/30 03:07:14;;;;;;;12.85;3.22;;;;;;;;;;5050651;28;20418;-72
2023/07/30 03:09:39;;;;;;;7.00;2.93;;;;;;;;;;5050545;28;20020;-72
2023/07/30 03:12:04;;;;;;;12.30;2.63;;;;;;;;;;5051242;28;20263;-72
2023/07/30 03:14:29;;;;;;;11.18;3.40;;;;;;;;;;5050440;28;20283;-72
2023/07/30 03:16:55;;;;;;;13.30;3.13;;;;;;;;;;5050864;28;20013;-72
2023/07/30 03:19:20;;;;;;;10.50;2.70;;;;;;;;;;5051087;28;20295;-72
2023/07/30 03:21:45;;;;;;;12.37;3.00;;;;;;;;;;5048349;28;20283;-72
2023/07/30 03:24:10;;;;;;;7.30;3.03;;;;;;;;;;5051037;28;20074;-72
2023/07/30 03:26:35;;;;;;;11.93;3.10;;;;;;;;;;5050547;28;20981;-72
2023/07/30 03:29:00;;;;;;;9.17;3.07;;;;;;;;;;5049924;28;20301;-72
2023/07/30 03:31:28;;;;;;;12.73;2.80;;;;;;;;;;5050091;28;20278;-72
2023/07/30 03:33:53;;;;;;;11.57;2.83;;;;;;;;;;5049966;28;20055;-72
2023/07/30 03:36:18;;;;;;;8.20;3.17;;;;;;;;;;5049350;28;20061;-72
2023/07/30 03:38:43;;;;;;;11.03;2.73;;;;;;;;;;5050721;28;20520;-72
2023/07/30 03:41:09;;;;;;;7.78;3.33;;;;;;;;;;5050130;28;20301;-72
2023/07/30 03:43:35;;;;;;;13.60;2.75;;;;;;;;;;5050009;28;20029;-72
2023/07/30 03:46:00;;;;;;;13.25;2.88;;;;;;;;;;5049482;28;20025;-71
2023/07/30 03:48:25;;;;;;;8.10;2.88;;;;;;;;;;5049705;28;20017;-72
2023/07/30 03:50:52;;;;;;;8.20;2.97;;;;;;;;;;5046498;28;20032;-72
2023/07/30 03:53:17;;;;;;;12.45;3.03;;;;;;;;;;5050775;28;20021;-72
2023/07/30 03:55:42;;;;;;;11.93;2.60;;;;;;;;;;5047327;28;20036;-72
2023/07/30 03:58:07;;;;;;;16.30;2.60;;;;;;;;;;5049256;28;20819;-72
2023/07/30 04:00:33;;;;;;;5.70;2.77;;;;;;;;;;5050495;28;20256;-72
2023/07/30 04:02:58;;;;;;;15.38;2.97;;;;;;;;;;5049673;28;20286;-72
2023/07/30 04:05:23;;;;;;;7.93;2.83;;;;;;;;;;5048065;28;20043;-72
2023/07/30 04:07:48;;;;;;;10.15;2.20;;;;;;;;;;5049929;28;20315;-72
2023/07/30 04:10:14;;;;;;;13.57;2.53;;;;;;;;;;5048080;28;20378;-72
2023/07/30 04:12:39;;;;;;;11.45;2.17;;;;;;;;;;5050356;28;20393;-72
2023/07/30 04:15:04;;;;;;;9.70;2.47;;;;;;;;;;5050367;28;20362;-72
2023/07/30 04:17:29;;;;;;;8.05;2.10;;;;;;;;;;5026443;28;20318;-72
2023/07/30 04:19:54;;;;;;;9.17;2.00;;;;;;;;;;5044465;28;20025;-72
2023/07/30 04:22:20;;;;;;;9.10;2.57;;;;;;;;;;5049236;28;20656;-72
2023/07/30 04:24:45;;;;;;;13.90;2.70;;;;;;;;;;5050193;28;20275;-72
2023/07/30 04:27:10;;;;;;;7.15;2.85;;;;;;;;;;5049774;28;20365;-72
2023/07/30 04:29:35;;;;;;;7.03;2.23;;;;;;;;;;5044365;28;20021;-72
2023/07/30 04:32:00;;;;;;;9.25;2.60;;;;;;;;;;5045151;28;20300;-72
2023/07/30 04:34:26;;;;;;;12.80;2.30;;;;;;;;;;5049317;28;20029;-72
2023/07/30 04:36:51;;;;;;;4.07;2.30;;;;;;;;;;5049608;28;20277;-72
2023/07/30 04:39:16;;;;;;;9.20;2.40;;;;;;;;;;5049810;28;20267;-72
2023/07/30 04:41:41;;;;;;;8.77;2.13;;;;;;;;;;5049707;28;20513;-72
2023/07/30 04:44:06;;;;;;;11.10;2.13;;;;;;;;;;5048939;28;20434;-72
2023/07/30 04:46:33;;;;;;;11.67;2.30;;;;;;;;;;5043098;28;20039;-72
2023/07/30 04:48:58;;;;;;;11.23;2.63;;;;;;;;;;5048770;28;20275;-72
2023/07/30 04:51:23;;;;;;;10.75;2.03;;;;;;;;;;5050284;28;20016;-72
2023/07/30 04:53:48;;;;;;;6.63;1.90;;;;;;;;;;5053113;28;20519;-72
2023/07/30 04:56:14;;;;;;;7.93;2.17;;;;;;;;;;5050303;28;20271;-72
2023/07/30 04:58:39;;;;;;;5.38;2.17;;;;;;;;;;5052169;28;20024;-72
2023/07/30 05:01:04;;;;;;;10.43;2.10;;;;;;;;;;5052523;28;20021;-72
2023/07/30 05:03:30;;;;;;;5.70;1.97;;;;;;;;;;5051996;28;20016;-72
2023/07/30 05:05:55;;;;;;;7.23;2.63;;;;;;;;;;5052747;28;20263;-72
2023/07/30 05:08:20;;;;;;;8.47;3.10;;;;;;;;;;5053581;28;20021;-72
2023/07/30 05:10:45;;;;;;;5.63;1.90;;;;;;;;;;5053651;28;20275;-72
2023/07/30 05:13:12;;;;;;;13.33;2.07;;;;;;;;;;5052151;28;20610;-72
2023/07/30 05:15:38;;;;;;;4.63;1.98;;;;;;;;;;5050637;28;20278;-72
2023/07/30 05:18:03;;;;;;;15.40;2.10;;;;;;;;;;5052456;28;20037;-72
2023/07/30 05:20:28;;;;;;;9.00;2.03;;;;;;;;;;5047332;28;20286;-72
2023/07/30 05:22:53;;;;;;;11.00;2.53;;;;;;;;;;5052497;28;20809;-72
2023/07/30 05:25:18;;;;;;;7.50;2.07;;;;;;;;;;5052316;28;20100;-72
2023/07/30 05:27:43;;;;;;;8.57;2.13;;;;;;;;;;5051874;28;20074;-72
2023/07/30 05:30:09;;;;;;;9.10;2.30;;;;;;;;;;5050425;28;20283;-72
2023/07/30 05:32:34;;;;;;;8.55;2.40;;;;;;;;;;5050748;28;20294;-72
2023/07/30 05:34:59;;;;;;;12.87;2.03;;;;;;;;;;5052498;28;20473;-72
2023/07/30 05:37:24;;;;;;;9.67;3.07;;;;;;;;;;5052247;28;20252;-72
2023/07/30 05:39:50;;;;;;;7.70;2.27;;;;;;;;;;5051947;28;20271;-72
2023/07/30 05:42:15;;;;;;;19.10;3.15;;;;;;;;;;5052933;28;20321;-72
2023/07/30 05:44:40;;;;;;;14.33;2.23;;;;;;;;;;5051553;28;20667;-72
2023/07/30 05:47:05;;;;;;;10.75;2.53;;;;;;;;;;5047596;28;20409;-72
2023/07/30 05:49:30;;;;;;;7.70;1.83;;;;;;;;;;5051846;28;20044;-72
2023/07/30 05:51:56;;;;;;;8.15;1.75;;;;;;;;;;5051414;28;20268;-72
2023/07/30 05:54:21;;;;;;;10.77;1.75;;;;;;;;;;5050144;28;20121;-72
2023/07/30 05:56:46;;;;;;;5.45;2.13;;;;;;;;;;5052255;28;20033;-72
2023/07/30 05:59:11;;;;;;;7.97;1.80;;;;;;;;;;5048976;28;20029;-72
2023/07/30 06:01:36;;;;;;;8.63;2.28;;;;;;;;;;5047772;28;20324;-72
2023/07/30 06:04:01;;;;;;;7.15;2.20;;;;;;;;;;5047855;28;20158;-72
2023/07/30 06:06:27;;;;;;;13.68;2.45;;;;;;;;;;5050723;28;20124;-72
2023/07/30 06:08:56;;;;;;;5.07;1.50;;;;;;;;;;5052486;28;20112;-72
2023/07/30 06:11:21;;;;;;;6.63;1.73;;;;;;;;;;5049675;28;20031;-72
2023/07/30 06:13:46;;;;;;;8.93;1.67;;;;;;;;;;5048389;28;20504;-72
2023/07/30 06:16:11;;;;;;;20.60;2.53;;;;;;;;;;5049800;28;20478;-72
2023/07/30 06:18:37;;;;;;;8.30;1.52;;;;;;;;;;5051062;28;20056;-72
2023/07/30 06:21:02;;;;;;;9.90;2.03;;;;;;;;;;5047980;28;20498;-72
2023/07/30 06:23:27;;;;;;;5.93;1.75;;;;;;;;;;5052102;28;20264;-72
2023/07/30 06:25:52;;;;;;;9.90;1.87;;;;;;;;;;5050797;28;20075;-72
2023/07/30 06:28:17;;;;;;;8.57;2.07;;;;;;;;;;5052056;28;20260;-72
2023/07/30 06:30:43;;;;;;;6.50;1.63;;;;;;;;;;5052155;28;20251;-72
2023/07/30 06:33:08;;;;;;;5.07;1.43;;;;;;;;;;5052157;28;20104;-72
2023/07/30 06:35:33;;;;;;;8.73;1.17;;;;;;;;;;5051716;28;20016;-72
2023/07/30 06:37:58;;;;;;;6.57;1.47;;;;;;;;;;5048882;28;20680;-72
2023/07/30 06:40:23;;;;;;;5.83;1.60;;;;;;;;;;5051828;28;20346;-72
2023/07/30 06:42:48;;;;;;;8.57;1.73;;;;;;;;;;5051890;28;20248;-72
2023/07/30 06:45:14;;;;;;;8.47;2.07;;;;;;;;;;5051826;28;20469;-72
2023/07/30 06:47:39;;;;;;;3.65;1.17;;;;;;;;;;5051316;28;20092;-72
2023/07/30 06:50:04;;;;;;;6.30;1.03;;;;;;;;;;5050779;28;20021;-72
2023/07/30 06:52:29;;;;;;;7.47;1.60;;;;;;;;;;5051068;28;20009;-72
2023/07/30 06:54:55;;;;;;;5.60;1.30;;;;;;;;;;5049012;28;20470;-72
2023/07/30 06:57:20;;;;;;;9.47;1.37;;;;;;;;;;5051105;28;20248;-72
2023/07/30 06:59:45;;;;;;;9.23;1.90;;;;;;;;;;5051139;28;20418;-72
2023/07/30 07:02:10;;;;;;;6.30;1.37;;;;;;;;;;5051244;28;20802;-72
2023/07/30 07:04:35;;;;;;;9.53;1.90;;;;;;;;;;5050430;28;20336;-72
2023/07/30 07:07:03;;;;;;;4.27;1.50;;;;;;;;;;5049589;28;20025;-72
2023/07/30 07:09:28;;;;;;;3.40;1.65;;;;;;;;;;5051195;28;20056;-72
2023/07/30 07:11:53;;;;;;;7.00;1.70;;;;;;;;;;5050347;28;20048;-72
2023/07/30 07:14:18;;;;;;;6.73;1.40;;;;;;;;;;5051161;28;20017;-72
2023/07/30 07:16:44;;;;;;;5.80;1.37;;;;;;;;;;5049335;28;20714;-72
2023/07/30 07:19:09;;;;;;;18.35;1.73;;;;;;;;;;5050138;28;20017;-72
2023/07/30 07:21:34;;;;;;;6.83;1.53;;;;;;;;;;5050527;28;20028;-72
2023/07/30 07:23:59;;;;;;;9.37;1.70;;;;;;;;;;5048896;28;20039;-72
2023/07/30 07:26:24;;;;;;;6.07;1.58;;;;;;;;;;5050073;28;20279;-72
2023/07/30 07:28:49;;;;;;;8.03;1.07;;;;;;;;;;5049904;28;20028;-72
2023/07/30 07:31:15;;;;;;;12.57;1.87;;;;;;;;;;5050799;28;20283;-72
2023/07/30 07:33:40;;;;;;;10.50;1.40;;;;;;;;;;5050986;28;20088;-72
2023/07/30 07:36:06;;;;;;;10.07;1.53;;;;;;;;;;5049679;28;20370;-72
2023/07/30 07:38:31;;;;;;;9.50;2.10;;;;;;;;;;5050495;28;20259;-72
2023/07/30 07:40:56;;;;;;;6.22;1.63;;;;;;;;;;5050895;28;20390;-72
2023/07/30 07:43:22;;;;;;;8.67;1.77;;;;;;;;;;5050862;28;20005;-72
2023/07/30 07:45:47;;;;;;;10.77;2.70;;;;;;;;;;5052516;28;20776;-72
2023/07/30 07:48:12;;;;;;;18.33;5.57;;;;;;;;;;5050097;28;20013;-72
2023/07/30 07:50:37;;;;;;;17.00;5.27;;;;;;;;;;5049871;28;20609;-72
2023/07/30 07:53:02;;;;;;;13.43;3.87;;;;;;;;;;5050608;28;20058;-72
2023/07/30 07:55:27;;;;;;;12.00;5.63;;;;;;;;;;5049442;28;20398;-72
2023/07/30 07:57:52;;;;;;;14.83;5.00;;;;;;;;;;5050115;28;20078;-72
2023/07/30 08:00:19;;;;;;;9.33;2.50;;;;;;;;;;5050452;28;20382;-72
2023/07/30 08:02:44;;;;;;;12.25;2.17;;;;;;;;;;5050272;28;20259;-72
2023/07/30 08:05:09;;;;;;;12.80;2.03;;;;;;;;;;5032333;28;20616;-72
2023/07/30 08:07:34;;;;;;;9.25;2.65;;;;;;;;;;5047946;28;20017;-72
2023/07/30 08:10:00;;;;;;;11.70;2.07;;;;;;;;;;5050291;28;20592;-72
2023/07/30 08:12:25;;;;;;;9.93;1.70;;;;;;;;;;5049928;28;20255;-72
2023/07/30 08:14:50;;;;;;;9.23;1.83;;;;;;;;;;5049973;28;20448;-72
2023/07/30 08:17:15;;;;;;;8.25;2.00;;;;;;;;;;5049566;28;20458;-72
2023/07/30 08:19:41;;;;;;;6.47;1.48;;;;;;;;;;5049366;28;20019;-72
2023/07/30 08:22:06;;;;;;;12.60;2.10;;;;;;;;;;5048418;28;20029;-72
2023/07/30 08:24:31;;;;;;;11.03;2.00;;;;;;;;;;5049880;28;20029;-72
2023/07/30 08:26:56;;;;;;;13.00;2.13;;;;;;;;;;5046242;28;20311;-72
2023/07/30 08:29:21;;;;;;;10.23;2.00;;;;;;;;;;5045232;28;20489;-72
2023/07/30 08:31:47;;;;;;;19.50;2.30;;;;;;;;;;5048758;28;20283;-72
2023/07/30 08:34:12;;;;;;;7.83;1.70;;;;;;;;;;5046947;28;20275;-72
2023/07/30 08:36:38;;;;;;;10.93;2.20;;;;;;;;;;5048596;28;20474;-73
2023/07/30 08:39:03;;;;;;;12.80;1.80;;;;;;;;;;5048705;28;20017;-72
2023/07/30 08:41:29;;;;;;;16.02;2.50;;;;;;;;;;5049633;28;20052;-72
2023/07/30 08:43:54;;;;;;;8.68;1.95;;;;;;;;;;5048936;28;20032;-72
2023/07/30 08:46:19;;;;;;;20.02;2.50;;;;;;;;;;5049301;28;20070;-72
2023/07/30 08:48:44;;;;;;;9.60;2.70;;;;;;;;;;5048657;28;20440;-72
2023/07/30 08:51:11;;;;;;;9.73;2.28;;;;;;;;;;5048749;28;20272;-72
2023/07/30 08:53:36;;;;;;;9.65;2.60;;;;;;;;;;5049608;28;20028;-72
2023/07/30 08:56:02;;;;;;;11.40;2.67;;;;;;;;;;5048526;28;20017;-72
2023/07/30 08:58:27;;;;;;;10.13;1.75;;;;;;;;;;5048367;28;20017;-72
2023/07/30 09:00:54;;;;;;;9.88;2.30;;;;;;;;;;5049536;28;20024;-72
2023/07/30 09:03:21;;;;;;;12.50;2.45;;;;;;;;;;5048936;28;20033;-72
2023/07/30 09:05:46;;;;;;;13.05;2.88;;;;;;;;;;5047829;28;20021;-72
2023/07/30 09:08:12;;;;;;;18.05;2.95;;;;;;;;;;5049475;28;20021;-72
2023/07/30 09:10:37;;;;;;;18.73;2.53;;;;;;;;;;5045418;28;20116;-72
2023/07/30 09:13:02;;;;;;;14.87;2.70;;;;;;;;;;5048159;28;20021;-72
2023/07/30 09:15:32;;;;;;;11.07;2.60;;;;;;;;;;5049545;28;20048;-72
2023/07/30 09:17:57;;;;;;;7.13;2.20;;;;;;;;;;5044338;28;20013;-72
2023/07/30 09:20:22;;;;;;;13.17;2.10;;;;;;;;;;5049546;28;20039;-72
2023/07/30 09:22:49;;;;;;;13.27;2.33;;;;;;;;;;5049409;28;20418;-72
2023/07/30 09:25:18;;;;;;;10.00;2.30;;;;;;;;;;5047436;28;20345;-72
2023/07/30 09:27:47;;;;;;;16.30;2.00;;;;;;;;;;5048783;28;20028;-72
2023/07/30 09:30:12;;;;;;;12.20;2.10;;;;;;;;;;5046925;28;20435;-72
2023/07/30 09:32:37;;;;;;;16.53;2.10;;;;;;;;;;5049500;28;20052;-72
2023/07/30 09:35:09;;;;;;;14.00;2.40;;;;;;;;;;5049406;28;20252;-72
2023/07/30 09:37:38;;;;;;;8.32;2.05;;;;;;;;;;5046679;28;20299;-72
2023/07/30 09:40:05;;;;;;;12.77;1.50;;;;;;;;;;5052934;28;20013;-72
2023/07/30 09:42:30;;;;;;;14.13;2.15;;;;;;;;;;5052879;28;20043;-72
2023/07/30 09:44:58;;;;;;;11.00;1.75;;;;;;;;;;5034201;28;20009;-72
2023/07/30 09:47:25;;;;;;;7.13;2.10;;;;;;;;;;5052533;28;20538;-72
2023/07/30 09:49:51;;;;;;;8.82;1.98;;;;;;;;;;5051765;28;20451;-72
2023/07/30 09:52:16;;;;;;;10.55;2.25;;;;;;;;;;5049401;28;20013;-72
2023/07/30 09:54:41;;;;;;;10.40;1.52;;;;;;;;;;5052319;28;20025;-72
2023/07/30 09:57:06;;;;;;;9.47;2.17;;;;;;;;;;5048022;28;20520;-72
2023/07/30 09:59:32;;;;;;;9.27;1.63;;;;;;;;;;5052605;28;20816;-72
2023/07/30 10:01:58;;;;;;;15.43;2.45;;;;;;;;;;5051848;28;20975;-72
2023/07/30 10:04:23;;;;;;;8.20;1.50;;;;;;;;;;5051797;28;20024;-72
2023/07/30 10:06:51;;;;;;;11.88;1.98;;;;;;;;;;5050137;28;20401;-72
2023/07/30 10:09:17;;;;;;;7.90;1.75;;;;;;;;;;5049037;28;20040;-72
2023/07/30 10:11:43;;;;;;;14.32;1.70;;;;;;;;;;5052516;28;20039;-72
2023/07/30 10:14:08;;;;;;;12.45;2.20;;;;;;;;;;5052503;28;20461;-72
2023/07/30 10:16:33;;;;;;;11.82;1.67;;;;;;;;;;5052070;28;20028;-71
2023/07/30 10:18:59;;;;;;;10.97;1.97;;;;;;;;;;5049639;28;20029;-72
2023/07/30 10:21:25;;;;;;;10.40;1.80;;;;;;;;;;5051340;28;20283;-72
2023/07/30 10:24:10;;;;;;;17.80;2.65;;;;;;;;;;5052226;28;20450;-72
2023/07/30 10:26:37;;;;;;;9.55;1.48;;;;;;;;;;5051049;28;20065;-72
2023/07/30 10:29:16;;;;;;;5.72;1.77;;;;;;;;;;5049340;28;20013;-72
2023/07/30 10:31:42;;;;;;;10.02;1.70;;;;;;;;;;5051887;28;20017;-69
2023/07/30 10:34:09;;;;;;;12.90;1.75;;;;;;;;;;5051359;28;20540;-69
2023/07/30 10:36:44;;;;;;;14.85;2.05;;;;;;;;;;5047792;28;20112;-70
2023/07/30 10:39:12;;;;;;;5.72;1.27;;;;;;;;;;5050653;28;20017;-70
2023/07/30 10:41:38;;;;;;;7.93;2.00;;;;;;;;;;5051655;28;20103;-69
2023/07/30 10:44:03;;;;;;;8.88;2.17;;;;;;;;;;5051906;28;20112;-69
2023/07/30 10:46:28;;;;;;;5.13;1.20;;;;;;;;;;5051304;28;20028;-72
2023/07/30 10:48:54;;;;;;;6.28;1.45;;;;;;;;;;5047690;28;20095;-72
2023/07/30 10:51:20;;;;;;;6.57;2.05;;;;;;;;;;5049491;28;20037;-72
2023/07/30 10:53:46;;;;;;;9.30;1.40;;;;;;;;;;5051326;28;20021;-70
2023/07/30 10:56:12;;;;;;;11.93;1.30;;;;;;;;;;5050440;28;20096;-70
2023/07/30 10:58:37;;;;;;;8.75;1.55;;;;;;;;;;5051490;28;20096;-72
2023/07/30 11:01:03;;;;;;;8.48;1.67;;;;;;;;;;5049889;28;20540;-72
2023/07/30 11:03:29;;;;;;;9.45;1.95;;;;;;;;;;5051348;28;20017;-70
2023/07/30 11:05:54;;;;;;;9.05;1.63;;;;;;;;;;5049255;28;20067;-70
2023/07/30 11:08:21;;;;;;;7.38;1.40;;;;;;;;;;5050430;28;20374;-70
2023/07/30 11:10:47;;;;;;;10.45;1.63;;;;;;;;;;5050522;28;20017;-70
2023/07/30 11:13:13;;;;;;;1.92;0.90;;;;;;;;;;5051113;28;20024;-70
2023/07/30 11:15:45;;;;;;;5.43;1.63;;;;;;;;;;5050409;28;20017;-70
2023/07/30 11:18:11;;;;;;;10.05;1.77;;;;;;;;;;5047731;28;20108;-70
2023/07/30 11:20:37;;;;;;;7.38;1.45;;;;;;;;;;5050009;28;20021;-70
2023/07/30 11:23:02;;;;;;;7.95;2.15;;;;;;;;;;5050993;28;20025;-70
2023/07/30 11:25:27;;;;;;;5.80;1.42;;;;;;;;;;5050913;28;20397;-70
2023/07/30 11:27:52;;;;;;;5.47;1.13;;;;;;;;;;5046033;28;20021;-70
2023/07/30 11:30:18;;;;;;;4.30;1.03;;;;;;;;;;5049548;28;20267;-70
2023/07/30 11:32:46;;;;;;;4.55;1.08;;;;;;;;;;5050445;28;20098;-70
2023/07/30 11:35:15;;;;;;;8.10;1.13;;;;;;;;;;5050678;28;20017;-70
2023/07/30 11:37:42;;;;;;;4.07;1.35;;;;;;;;;;5046486;28;20021;-70
2023/07/30 11:40:08;;;;;;;10.65;1.70;;;;;;;;;;5049275;28;20032;-71
2023/07/30 11:42:34;;;;;;;6.88;1.30;;;;;;;;;;5049475;28;20098;-71
2023/07/30 11:45:16;;;;;;;6.47;1.30;;;;;;;;;;5049434;28;20021;-70
2023/07/30 11:47:41;;;;;;;5.63;1.20;;;;;;;;;;5045062;28;20028;-71
2023/07/30 11:50:06;;;;;;;5.35;1.48;;;;;;;;;;5050242;28;20051;-71
2023/07/30 11:52:31;;;;;;;9.00;2.40;;;;;;;;;;5050279;28;20025;-71
2023/07/30 11:55:01;;;;;;;8.07;1.10;;;;;;;;;;5047360;28;20271;-71
2023/07/30 11:57:33;;;;;;;5.10;1.00;;;;;;;;;;5049161;28;20275;-71
2023/07/30 11:59:58;;;;;;;9.63;1.40;;;;;;;;;;5049457;28;20263;-71
2023/07/30 12:02:23;;;;;;;7.18;1.65;;;;;;;;;;5045169;28;20025;-71
2023/07/30 12:04:49;;;;;;;10.43;2.03;;;;;;;;;;5050013;28;20082;-74
2023/07/30 12:07:21;;;;;;;6.87;2.00;;;;;;;;;;5048770;28;20279;-73
2023/07/30 12:09:47;;;;;;;10.15;1.35;;;;;;;;;;5050504;28;20068;-73
2023/07/30 12:12:12;;;;;;;4.97;1.20;;;;;;;;;;5050354;28;20028;-73
2023/07/30 12:14:44;;;;;;;11.93;1.27;;;;;;;;;;5049570;28;20481;-73
2023/07/30 12:17:09;;;;;;;6.15;1.40;;;;;;;;;;5049372;28;20429;-73
2023/07/30 12:19:36;;;;;;;14.90;2.08;;;;;;;;;;5046806;28;20168;-73
2023/07/30 12:22:01;;;;;;;12.30;1.90;;;;;;;;;;5048465;28;20021;-73
2023/07/30 12:24:26;;;;;;;14.70;2.58;;;;;;;;;;5031164;28;20132;-73
2023/07/30 12:26:51;;;;;;;15.30;2.33;;;;;;;;;;5045890;28;20474;-73
2023/07/30 12:29:16;;;;;;;12.67;1.20;;;;;;;;;;5048266;28;20821;-73
2023/07/30 12:31:42;;;;;;;8.80;1.40;;;;;;;;;;5048990;28;20024;-73
2023/07/30 12:34:07;;;;;;;3.92;0.90;;;;;;;;;;5049819;28;20128;-73
2023/07/30 12:36:32;;;;;;;7.32;1.83;;;;;;;;;;5046238;28;20012;-73
2023/07/30 12:38:57;;;;;;;7.18;1.33;;;;;;;;;;5049732;28;20040;-73
2023/07/30 12:41:25;;;;;;;6.03;1.07;;;;;;;;;;5049991;28;20495;-73
2023/07/30 12:43:56;;;;;;;7.47;1.00;;;;;;;;;;5049984;28;20101;-73
2023/07/30 12:46:21;;;;;;;;;;;;;;;;;;5049007;28;20020;-73
2023/07/30 12:48:46;;;;;;;11.20;1.20;;;;;;;;;;5047698;28;19928;-73
2023/07/30 12:51:11;;;;;;;7.27;1.63;;;;;;;;;;5050416;28;20428;-71
2023/07/30 12:53:36;;;;;;;5.23;1.47;;;;;;;;;;5048356;28;20027;-71
2023/07/30 12:56:02;;;;;;;10.83;1.73;;;;;;;;;;5048721;28;20259;-73
2023/07/30 12:58:27;;;;;;;6.13;1.60;;;;;;;;;;5049064;28;20028;-73
2023/07/30 13:00:52;;;;;;;7.35;1.33;;;;;;;;;;5048316;28;20486;-73
2023/07/30 13:03:17;;;;;;;8.30;1.40;;;;;;;;;;5049279;28;20021;-73
2023/07/30 13:05:42;;;;;;;14.10;2.70;;;;;;;;;;5049483;28;20309;-73
2023/07/30 13:08:08;;;;;;;9.27;1.67;;;;;;;;;;5048880;28;20299;-73
2023/07/30 13:10:33;;;;;;;8.27;1.42;;;;;;;;;;5046545;28;20073;-73
2023/07/30 13:12:58;;;;;;;12.10;2.15;;;;;;;;;;5051279;28;20013;-74
2023/07/30 13:15:23;;;;;;;7.60;1.13;;;;;;;;;;5053239;28;20024;-74
2023/07/30 13:17:49;;;;;;;8.63;1.60;;;;;;;;;;5053128;28;20255;-74
2023/07/30 13:20:14;;;;;;;20.17;1.87;;;;;;;;;;5053102;28;20253;-74
2023/07/30 13:22:39;;;;;;;6.37;1.73;;;;;;;;;;5052611;28;20127;-74
2023/07/30 13:25:04;;;;;;;10.32;1.90;;;;;;;;;;5051695;28;20267;-73
2023/07/30 13:27:30;;;;;;;11.63;1.48;;;;;;;;;;5050121;28;20100;-73
2023/07/30 13:29:55;;;;;;;11.77;2.13;;;;;;;;;;5051994;28;20377;-74
2023/07/30 13:32:20;;;;;;;19.08;1.80;;;;;;;;;;5033196;28;20075;-74
2023/07/30 13:34:45;;;;;;;7.47;1.60;;;;;;;;;;5047575;28;20025;-74
2023/07/30 13:37:10;;;;;;;12.57;1.90;;;;;;;;;;5051882;28;20028;-74
2023/07/30 13:39:36;;;;;;;6.87;2.00;;;;;;;;;;5049975;28;20028;-74
2023/07/30 13:42:01;;;;;;;8.60;1.67;;;;;;;;;;5050243;28;20271;-74
2023/07/30 13:44:26;;;;;;;7.65;1.58;;;;;;;;;;5052079;28;20255;-74
2023/07/30 13:46:51;;;;;;;9.37;2.00;;;;;;;;;;5052388;28;20013;-74
2023/07/30 13:49:17;;;;;;;9.13;1.65;;;;;;;;;;5050426;28;20244;-74
2023/07/30 13:51:42;;;;;;;10.48;1.60;;;;;;;;;;5041273;28;20029;-74
2023/07/30 13:54:07;;;;;;;5.70;1.48;;;;;;;;;;5040172;28;20057;-74
2023/07/30 13:56:33;;;;;;;5.95;1.10;;;;;;;;;;5047943;28;20013;-74
2023/07/30 13:58:58;;;;;;;9.00;1.90;;;;;;;;;;5047855;28;20025;-74
2023/07/30 14:01:23;;;;;;;6.43;1.73;;;;;;;;;;5048009;28;20025;-74
2023/07/30 14:03:48;;;;;;;8.63;2.10;;;;;;;;;;5051978;28;20279;-74
2023/07/30 14:06:14;;;;;;;7.43;1.75;;;;;;;;;;5048070;28;20027;-74
2023/07/30 14:08:39;;;;;;;10.95;2.30;;;;;;;;;;5033995;28;20473;-74
2023/07/30 14:11:04;;;;;;;13.30;2.30;;;;;;;;;;5049981;28;20055;-74
2023/07/30 14:13:29;;;;;;;7.13;1.40;;;;;;;;;;5052439;28;20012;-74
2023/07/30 14:15:55;;;;;;;9.77;1.70;;;;;;;;;;5051278;28;20024;-74
2023/07/30 14:18:22;;;;;;;11.55;1.80;;;;;;;;;;5049728;28;20271;-74
2023/07/30 14:20:47;;;;;;;7.40;2.17;;;;;;;;;;5050333;28;20056;-74
2023/07/30 14:23:12;;;;;;;6.77;1.67;;;;;;;;;;5046770;28;20057;-74
2023/07/30 14:25:37;;;;;;;12.95;2.45;;;;;;;;;;5050278;28;20386;-74
2023/07/30 14:28:03;;;;;;;10.20;1.27;;;;;;;;;;5051749;28;20047;-74